Latest Weather Observations for Mount Ginini

IDN60801

Issued at 11:32 pm EDT Wednesday 22 November 2017 (issued every 30 minutes, with the page automatically refreshed every 10 minutes)

About weather observations | Map of weather stations | Latest weather observations for NSW | Other Formats
Station Details ID: 070349 Name: MOUNT GININI AWS Lat: -35.53 Lon: 148.77 Height: 1760.0 m
Data from the previous 72 hours. | See also: Recent months at Mount Ginini
Date/Time
EDT
Temp
°C
App
Temp
°C
Dew
Point
°C
Rel
Hum
%
Delta-T
°C
Wind Press
QNH
hPa
Press
MSL
hPa
Rain since
9am
mm
Dir  Spd
km/h
Gust
km/h
Spd
kts
Gust
kts
22/11:30pm 8.9 6.5 8.5 97 0.2 NE 11 19 6 10 - - 0.0
22/11:00pm 9.0 6.6 8.6 97 0.2 NE 11 20 6 11 - - 0.0
22/10:30pm 9.4 7.1 8.9 97 0.3 NE 11 19 6 10 - - 0.0
22/10:00pm 9.6 6.9 9.1 97 0.3 NE 13 24 7 13 - - 0.0
22/09:30pm 9.7 7.4 9.1 96 0.3 NE 11 19 6 10 - - 0.0
22/09:00pm 9.9 7.6 9.0 94 0.5 NE 11 22 6 12 - - 0.0
22/08:30pm 10.5 8.2 4.9 68 2.8 WNW 6 9 3 5 - - 0.0
22/08:00pm 10.7 8.2 3.5 61 3.5 NW 6 7 3 4 - - 0.0
22/07:30pm 11.0 8.7 2.6 56 4.0 WNW 4 6 2 3 - - 0.0
22/07:00pm 11.2 9.4 3.5 59 3.8 W 2 4 1 2 - - 0.0
22/06:30pm 12.0 9.4 1.1 47 5.1 N 4 9 2 5 - - 0.0
22/06:00pm 12.9 9.9 0.6 43 5.7 NNE 6 13 3 7 - - 0.0
22/05:30pm 14.7 11.4 2.3 43 6.1 NNE 9 17 5 9 - - 0.0
22/05:00pm 14.6 11.1 1.2 40 6.4 NNE 9 19 5 10 - - 0.0
22/04:30pm 15.8 13.0 2.9 42 6.4 NNE 7 20 4 11 - - 0.0
22/04:00pm 16.4 13.7 5.4 48 5.8 NE 9 20 5 11 - - 0.0
22/03:30pm 15.6 13.0 4.3 47 5.8 NNE 7 19 4 10 - - 0.0
22/03:00pm 14.6 11.7 4.9 52 5.0 NNE 9 20 5 11 - - 0.0
22/02:30pm 15.8 13.1 5.7 51 5.3 N 9 22 5 12 - - 0.0
22/02:00pm 16.2 14.0 6.1 51 5.4 NNE 7 17 4 9 - - 0.0
22/01:30pm 15.8 13.6 6.3 53 5.1 NNE 7 17 4 9 - - 0.0
22/01:00pm 15.0 13.1 5.0 51 5.2 NNW 4 15 2 8 - - 0.0
22/12:30pm 15.0 13.1 5.0 51 5.2 NNW 4 17 2 9 - - 0.0
22/12:00pm 14.5 12.1 4.2 50 5.2 NE 6 20 3 11 - - 0.0
22/11:30am 14.1 12.5 4.4 52 4.9 N 2 9 1 5 - - 0.0
22/11:00am 14.0 12.2 5.4 56 4.5 N 4 11 2 6 - - 0.0
22/10:30am 13.0 10.7 2.6 49 5.1 WSW 4 7 2 4 - - 0.0
22/10:00am 12.4 10.0 2.0 49 5.0 NNE 4 11 2 6 - - 0.0
22/09:30am 12.7 9.8 -1.2 38 6.2 NNE 4 9 2 5 - - 0.0
22/09:00am 11.9 8.7 -3.8 33 6.6 NE 4 7 2 4 - - 0.0
22/08:30am 10.6 7.2 -5.4 32 6.4 NNE 4 9 2 5 - - 0.0
22/08:00am 9.6 5.4 -7.5 29 6.4 NNE 7 13 4 7 - - 0.0
22/07:30am 8.4 3.7 -8.6 29 6.1 NE 9 15 5 8 - - 0.0
22/07:00am 8.6 3.8 -10.3 25 6.6 ENE 9 15 5 8 - - 0.0
22/06:30am 7.6 2.0 -11.6 24 6.4 ENE 13 19 7 10 - - 0.0
22/06:00am 6.5 0.5 -11.1 27 5.8 ENE 15 24 8 13 - - 0.0
22/05:30am 6.1 0.2 -9.3 32 5.3 ENE 15 20 8 11 - - 0.0
22/05:00am 6.4 0.5 -10.3 29 5.6 E 15 20 8 11 - - 0.0
22/04:30am 6.2 0.8 -8.8 33 5.2 E 13 20 7 11 - - 0.0
22/04:00am 6.7 2.0 -9.6 30 5.6 E 9 13 5 7 - - 0.0
22/03:30am 7.7 3.6 -9.2 29 6.0 ESE 6 11 3 6 - - 0.0
22/03:00am 7.3 3.4 -4.4 43 4.6 ESE 7 13 4 7 - - 0.0
22/02:30am 6.8 2.1 -4.6 44 4.5 E 11 17 6 9 - - 0.0
22/02:00am 6.3 1.9 -2.1 55 3.5 E 11 17 6 9 - - 0.0
22/01:30am 6.4 2.2 -1.0 59 3.1 E 11 15 6 8 - - 0.0
22/01:00am 6.6 3.1 3.6 81 1.4 ENE 11 15 6 8 - - 0.0
22/12:30am 7.2 4.9 5.8 91 0.7 E 7 9 4 5 - - 0.0
22/12:00am 7.3 5.1 6.2 93 0.6 E 7 13 4 7 - - 0.0
 
Date/Time
EDT
Temp
°C
App
Temp
°C
Dew
Point
°C
Rel
Hum
%
Delta-T
°C
Wind Press
QNH
hPa
Press
MSL
hPa
Rain since
9am
mm
Dir  Spd
km/h
Gust
km/h
Spd
kts
Gust
kts
21/11:30pm 7.5 4.6 6.6 94 0.5 E 11 15 6 8 - - 0.0
21/11:00pm 7.3 4.8 6.4 94 0.5 ENE 9 13 5 7 - - 0.0
21/10:30pm 7.9 5.4 6.5 91 0.7 ENE 9 11 5 6 - - 0.0
21/10:00pm 7.9 4.7 7.0 94 0.5 ENE 13 19 7 10 - - 0.0
21/09:30pm 8.0 5.2 6.9 93 0.6 ENE 11 19 6 10 - - 0.0
21/09:00pm 8.9 5.4 5.3 78 1.8 ENE 13 24 7 13 - - 0.0
21/08:30pm 9.7 5.5 3.7 66 2.9 ENE 15 22 8 12 - - 0.0
21/08:00pm 10.4 6.4 3.0 60 3.6 ENE 13 22 7 12 - - 0.0
21/07:30pm 11.1 6.6 2.4 55 4.2 ENE 15 24 8 13 - - 0.0
21/07:00pm 12.5 8.1 2.7 51 4.8 ENE 15 24 8 13 - - 0.0
21/06:30pm 13.5 9.2 3.0 49 5.2 ENE 15 26 8 14 - - 0.0
21/06:00pm 14.6 10.4 3.7 48 5.5 ENE 15 26 8 14 - - 0.0
21/05:30pm 15.1 10.7 4.8 50 5.3 ENE 17 28 9 15 - - 0.0
21/05:00pm 15.9 11.8 4.6 47 5.8 ENE 15 28 8 15 - - 0.0
21/04:30pm 16.1 12.4 4.2 45 6.1 ENE 13 26 7 14 - - 0.0
21/04:00pm 16.0 11.9 2.1 39 6.8 ENE 13 26 7 14 - - 0.0
21/03:30pm 16.4 11.7 3.1 41 6.7 ENE 17 30 9 16 - - 0.0
21/03:00pm 17.0 12.1 4.0 42 6.7 ENE 19 32 10 17 - - 0.0
21/02:30pm 16.2 12.0 1.9 38 7.0 ENE 13 26 7 14 - - 0.0
21/02:00pm 16.4 11.4 1.3 36 7.3 ENE 17 28 9 15 - - 0.0
21/01:30pm 16.6 13.4 3.0 40 6.8 ENE 9 22 5 12 - - 0.0
21/01:00pm 15.7 12.5 2.8 42 6.4 E 9 22 5 12 - - 0.0
21/12:30pm 15.7 13.3 4.1 46 5.9 ESE 6 19 3 10 - - 0.0
21/12:00pm 15.0 11.8 0.8 38 6.8 E 7 19 4 10 - - 0.0
21/11:30am 14.6 11.5 1.2 40 6.4 ESE 7 20 4 11 - - 0.0
21/11:00am 15.0 11.3 -0.3 35 7.1 E 9 19 5 10 - - 0.0
21/10:30am 14.4 10.4 -2.1 32 7.4 E 9 19 5 10 - - 0.0
21/10:00am 15.0 11.0 -2.0 31 7.6 E 9 20 5 11 - - 0.0
21/09:30am 13.9 8.8 -5.3 26 8.0 ENE 13 22 7 12 - - 0.0
21/09:00am 13.5 8.2 -7.8 22 8.3 ENE 13 22 7 12 - - 0.0
21/08:30am 13.2 8.2 -4.4 29 7.4 E 13 24 7 13 - - 0.0
21/08:00am 11.8 6.3 -5.2 30 6.9 E 15 22 8 12 - - 0.0
21/07:30am 10.6 5.1 -5.4 32 6.4 E 15 22 8 12 - - 0.0
21/07:00am 9.5 3.9 -6.3 32 6.1 E 15 22 8 12 - - 0.0
21/06:30am 8.0 2.3 -7.3 33 5.7 E 15 22 8 12 - - 0.0
21/06:00am 6.9 1.1 -8.6 32 5.5 E 15 22 8 12 - - 0.0
21/05:30am 6.5 1.2 -7.8 35 5.1 E 13 22 7 12 - - 0.0
21/05:00am 6.9 1.1 -8.2 33 5.4 E 15 22 8 12 - - 0.0
21/04:30am 6.9 1.2 -7.9 34 5.3 E 15 22 8 12 - - 0.0
21/04:00am 6.9 1.0 -5.7 40 4.8 E 17 26 9 14 - - 0.0
21/03:30am 6.9 1.8 -2.3 52 3.8 E 15 22 8 12 - - 0.0
21/03:00am 6.8 1.7 -4.9 43 4.5 E 13 20 7 11 - - 0.0
21/02:30am 7.2 2.1 -2.2 51 3.9 E 15 20 8 11 - - 0.0
21/02:00am 7.0 1.7 -3.5 47 4.2 E 15 22 8 12 - - 0.0
21/01:30am 7.1 1.2 -5.2 41 4.7 E 17 24 9 13 - - 0.0
21/01:00am 7.6 1.9 -0.6 56 3.6 E 19 28 10 15 - - 0.0
21/12:30am 8.4 2.7 -0.9 52 4.0 E 19 28 10 15 - - 0.0
21/12:00am 8.6 2.8 -1.8 48 4.4 E 19 28 10 15 - - 0.0
 
Date/Time
EDT
Temp
°C
App
Temp
°C
Dew
Point
°C
Rel
Hum
%
Delta-T
°C
Wind Press
QNH
hPa
Press
MSL
hPa
Rain since
9am
mm
Dir  Spd
km/h
Gust
km/h
Spd
kts
Gust
kts
20/11:30pm 8.3 3.0 -0.7 53 3.9 E 17 24 9 13 - - 0.0
20/11:00pm 8.3 4.1 3.9 74 2.1 E 15 24 8 13 - - 0.0
20/10:30pm 8.6 5.0 5.2 79 1.7 E 13 20 7 11 - - 0.0
20/10:00pm 8.7 5.2 5.4 80 1.7 E 13 22 7 12 - - 0.0
20/09:30pm 8.4 5.5 6.4 87 1.0 E 11 19 6 10 - - 0.0
20/09:00pm 9.0 4.8 7.5 90 0.8 ENE 19 30 10 16 - - 0.0
20/08:30pm 9.6 5.0 5.8 77 1.9 ENE 19 32 10 17 - - 0.0
20/08:00pm 10.4 6.6 5.8 73 2.4 ENE 15 26 8 14 - - 0.0
20/07:30pm 11.0 7.1 5.5 69 2.8 ENE 15 24 8 13 - - 0.0
20/07:00pm 12.0 8.0 5.0 62 3.6 ENE 15 28 8 15 - - 0.0
20/06:30pm 13.0 9.1 5.2 59 4.0 ENE 15 28 8 15 - - 0.0
20/06:00pm 14.0 10.6 5.9 58 4.2 ENE 13 24 7 13 - - 0.0
20/05:30pm 14.5 10.7 5.8 56 4.6 ENE 15 24 8 13 - - 0.0
20/05:00pm 15.0 11.7 6.3 56 4.6 ENE 13 26 7 14 - - 0.0
20/04:30pm 15.2 11.8 6.0 54 4.9 ENE 13 26 7 14 - - 0.0
20/04:00pm 15.2 11.8 6.0 54 4.9 ENE 13 22 7 12 - - 0.0
20/03:30pm 16.1 13.1 6.0 51 5.4 ENE 11 24 6 13 - - 0.0
20/03:00pm 15.8 12.5 4.5 47 5.8 NE 11 22 6 12 - - 0.0
20/02:30pm 16.2 12.6 5.2 48 5.8 ENE 13 24 7 13 - - 0.0
20/02:00pm 16.0 12.5 3.4 43 6.4 ENE 11 19 6 10 - - 0.0
20/01:30pm 15.5 12.3 3.3 44 6.1 ENE 9 17 5 9 - - 0.0
20/01:00pm 15.2 11.3 3.4 45 5.9 ENE 13 22 7 12 - - 0.0
20/12:30pm 15.5 12.3 5.1 50 5.4 ENE 11 20 6 11 - - 0.0
20/12:00pm 15.5 12.2 4.3 47 5.7 ENE 11 22 6 12 - - 0.0
20/11:30am 14.5 10.4 4.5 51 5.1 ENE 15 24 8 13 - - 0.0
20/11:00am 14.2 9.6 3.9 50 5.2 ENE 17 26 9 14 - - 0.0
20/10:30am 14.3 10.1 4.0 50 5.2 ENE 15 24 8 13 - - 0.0
20/10:00am 14.2 10.2 2.8 46 5.6 ENE 13 26 7 14 - - 0.0
20/09:30am 12.9 7.4 0.3 42 5.8 ENE 19 30 10 16 - - 0.0
20/09:00am 12.0 6.5 0.5 45 5.3 ENE 19 32 10 17 - - 0.0
20/08:30am 10.4 4.5 -1.0 45 5.0 E 20 35 11 19 - - 0.0
20/08:00am 9.3 3.5 -0.3 51 4.3 E 20 32 11 17 - - 0.0
20/07:30am 8.0 2.2 -0.2 56 3.6 E 20 30 11 16 - - 0.0
20/07:00am 7.0 1.0 -1.4 55 3.5 E 20 28 11 15 - - 0.0
20/06:30am 5.0 -1.0 -1.7 62 2.8 E 20 30 11 16 - - 0.0
20/06:00am 4.4 -1.4 0.2 74 1.8 E 20 30 11 16 - - 0.0
20/05:30am 3.7 -1.6 3.1 96 0.3 E 20 30 11 16 - - 0.0
20/05:00am 3.5 -2.2 3.1 97 0.2 E 22 30 12 16 - - 0.0
20/04:30am 3.5 -1.6 3.2 98 0.1 E 19 26 10 14 - - 0.0
20/04:00am 3.5 -1.8 3.2 98 0.1 E 20 28 11 15 - - 0.0
20/03:30am 3.7 -1.5 3.4 98 0.1 ENE 20 32 11 17 - - 0.0
20/03:00am 4.8 0.0 4.8 100 0.0 E 19 26 10 14 - - 0.0
20/02:30am 5.2 0.3 5.2 100 0.0 E 20 28 11 15 - - 0.0
20/02:00am 5.0 0.1 5.0 100 0.0 E 20 30 11 16 - - 0.0
20/01:30am 5.4 0.8 5.4 100 0.0 E 19 32 10 17 - - 0.0
20/01:00am 5.5 0.3 5.5 100 0.0 E 22 35 12 19 - - 0.0
20/12:30am 5.6 0.8 5.5 99 0.0 E 20 35 11 19 - - 0.0
20/12:00am 5.8 2.0 5.7 99 0.0 E 15 30 8 16 - - 0.0

Other Formats:

Comma delimited format used in spreadsheet applications
http://www.bom.gov.au/fwo/IDN60801/IDN60801.95925.axf

JavaScript Object Notation format (JSON) in row-major order
http://www.bom.gov.au/fwo/IDN60801/IDN60801.95925.json